Time;durP1;ratioP1;P1;durP2;ratioP2;P2;SDS_P1;SDS_P2;PMS_P1;PMS_P2;Temp;Humidity;BMP_temperature;BMP_pressure;BME280_temperature;BME280_humidity;BME280_pressure;Samples;Min_cycle;Max_cycle;Signal;HPM_P1;HPM_P2
2023/04/02 00:01:43;;;;;;;0.30;0.30;;;4.80;99.90;;;;;;4422035;32;20077;-77
2023/04/02 00:04:14;;;;;;;0.65;0.60;;;4.80;99.90;;;;;;4420492;32;20740;-79
2023/04/02 00:06:43;;;;;;;0.35;0.35;;;4.80;99.90;;;;;;4420932;32;20077;-79
2023/04/02 00:09:13;;;;;;;2.17;0.77;;;4.80;99.90;;;;;;4419533;32;20548;-78
2023/04/02 00:11:45;;;;;;;1.30;0.88;;;4.90;99.90;;;;;;4420782;32;20583;-79
2023/04/02 00:14:32;;;;;;;0.50;0.50;;;4.80;99.90;;;;;;4422470;32;20133;-79
2023/04/02 00:17:00;;;;;;;0.40;0.40;;;4.80;99.90;;;;;;4422570;32;20061;-78
2023/04/02 00:19:45;;;;;;;4.95;1.20;;;4.80;99.90;;;;;;4425093;32;20510;-78
2023/04/02 00:22:16;;;;;;;0.37;0.37;;;4.70;99.90;;;;;;4411520;32;20894;-79
2023/04/02 00:24:42;;;;;;;0.35;0.35;;;4.70;99.90;;;;;;4423704;32;20532;-77
2023/04/02 00:27:11;;;;;;;0.40;0.40;;;4.70;99.90;;;;;;4422979;32;20069;-76
2023/04/02 00:29:45;;;;;;;0.40;0.40;;;4.80;99.90;;;;;;4423264;32;20224;-79
2023/04/02 00:32:17;;;;;;;1.10;0.65;;;4.80;99.90;;;;;;4421115;32;20061;-78
2023/04/02 00:34:43;;;;;;;0.50;0.50;;;4.80;99.90;;;;;;4420895;32;20081;-77
2023/04/02 00:37:17;;;;;;;0.77;0.55;;;4.80;99.90;;;;;;4425688;32;20069;-79
2023/04/02 00:39:43;;;;;;;1.17;1.02;;;4.80;99.90;;;;;;4424052;32;20085;-79
2023/04/02 00:42:11;;;;;;;0.40;0.40;;;4.80;99.90;;;;;;4423355;32;20112;-79
2023/04/02 00:44:42;;;;;;;0.40;0.40;;;4.80;99.90;;;;;;4424828;32;20100;-79
2023/04/02 00:47:30;;;;;;;2.40;0.98;;;4.70;99.90;;;;;;4422366;32;20624;-78
2023/04/02 00:50:14;;;;;;;0.22;0.22;;;4.60;99.90;;;;;;4421714;32;20082;-78
2023/04/02 00:52:41;;;;;;;0.40;0.40;;;4.70;99.90;;;;;;4409044;32;20237;-78
2023/04/02 00:55:16;;;;;;;0.50;0.50;;;4.60;99.90;;;;;;4422535;32;20156;-77
2023/04/02 00:57:43;;;;;;;0.30;0.30;;;4.60;99.90;;;;;;4406024;32;20087;-78
2023/04/02 01:00:32;;;;;;;0.40;0.40;;;4.60;99.90;;;;;;4406957;32;20121;-78
2023/04/02 01:03:18;;;;;;;0.47;0.47;;;4.50;99.90;;;;;;4397172;32;20525;-76
2023/04/02 01:05:49;;;;;;;0.65;0.60;;;4.50;99.90;;;;;;4397073;32;20102;-79
2023/04/02 01:08:42;;;;;;;0.80;0.80;;;4.50;99.90;;;;;;4408489;32;20082;-76
2023/04/02 01:11:48;;;;;;;0.30;0.30;;;4.50;99.90;;;;;;4397203;32;20173;-78
2023/04/02 01:14:35;;;;;;;0.40;0.40;;;4.50;99.90;;;;;;4383654;32;20082;-78
2023/04/02 01:17:29;;;;;;;1.23;0.90;;;4.50;99.90;;;;;;4397560;32;20130;-78
2023/04/02 01:20:34;;;;;;;0.40;0.40;;;4.50;99.90;;;;;;4396632;32;20137;-78
2023/04/02 01:23:10;;;;;;;0.45;0.45;;;4.50;99.90;;;;;;4395236;32;20081;-79
2023/04/02 01:25:49;;;;;;;0.37;0.37;;;4.50;99.90;;;;;;4407162;32;20073;-79
2023/04/02 01:28:48;;;;;;;0.45;0.45;;;4.60;99.90;;;;;;4408404;32;20117;-79
2023/04/02 01:31:14;;;;;;;0.30;0.30;;;4.60;99.90;;;;;;4396580;32;20078;-79
2023/04/02 01:33:40;;;;;;;0.30;0.30;;;4.50;99.90;;;;;;4404900;32;20066;-78
2023/04/02 01:36:17;;;;;;;0.50;0.50;;;4.50;99.90;;;;;;4407091;32;20070;-79
2023/04/02 01:38:52;;;;;;;0.30;0.30;;;4.50;99.90;;;;;;4407445;32;20584;-78
2023/04/02 01:41:28;;;;;;;0.50;0.50;;;4.50;99.90;;;;;;4406231;32;20106;-79
2023/04/02 01:44:07;;;;;;;0.40;0.40;;;4.50;99.90;;;;;;4408013;32;20078;-77
2023/04/02 01:46:34;;;;;;;0.30;0.30;;;4.50;99.90;;;;;;4407061;32;20152;-77
2023/04/02 01:49:08;;;;;;;0.30;0.30;;;4.50;99.90;;;;;;4407009;32;20081;-79
2023/04/02 01:51:40;;;;;;;0.90;0.68;;;4.50;99.90;;;;;;4407584;32;20078;-77
2023/04/02 01:54:07;;;;;;;1.35;1.25;;;4.50;99.90;;;;;;4407710;32;20121;-78
2023/04/02 01:56:34;;;;;;;0.40;0.40;;;4.50;99.90;;;;;;4414673;32;20070;-79
2023/04/02 01:59:01;;;;;;;0.95;0.88;;;4.60;99.90;;;;;;4424502;32;20548;-78
2023/04/02 02:01:39;;;;;;;0.85;0.85;;;4.50;99.90;;;;;;4421085;32;20146;-78
2023/04/02 02:04:06;;;;;;;0.50;0.50;;;4.50;99.90;;;;;;4423296;32;20069;-77
2023/04/02 02:06:31;;;;;;;0.50;0.50;;;4.60;99.90;;;;;;4423868;32;20077;-79
2023/04/02 02:09:02;;;;;;;3.62;0.98;;;4.60;99.90;;;;;;4422762;32;20082;-78
2023/04/02 02:11:30;;;;;;;1.90;1.25;;;4.60;99.90;;;;;;4424225;32;20101;-78
2023/04/02 02:13:59;;;;;;;0.40;0.40;;;4.50;99.90;;;;;;4423313;32;20073;-79
2023/04/02 02:16:27;;;;;;;0.40;0.40;;;4.50;99.90;;;;;;4423769;32;20144;-80
2023/04/02 02:18:56;;;;;;;3.83;0.93;;;4.40;99.90;;;;;;4422706;32;20061;-79
2023/04/02 02:21:42;;;;;;;0.40;0.40;;;4.40;99.90;;;;;;4422185;32;20450;-78
2023/04/02 02:24:18;;;;;;;0.50;0.50;;;4.50;99.90;;;;;;4406809;32;20072;-76
2023/04/02 02:26:47;;;;;;;0.30;0.30;;;4.50;99.90;;;;;;4421449;32;20109;-79
2023/04/02 02:29:17;;;;;;;0.32;0.32;;;4.50;99.90;;;;;;4421681;32;20057;-79
2023/04/02 02:31:46;;;;;;;1.08;0.77;;;4.50;99.90;;;;;;4423172;32;20135;-78
2023/04/02 02:34:19;;;;;;;0.47;0.47;;;4.50;99.90;;;;;;4422465;32;20106;-78
2023/04/02 02:36:53;;;;;;;0.82;0.82;;;4.50;99.90;;;;;;4424296;32;20475;-79
2023/04/02 02:39:24;;;;;;;1.50;0.60;;;4.50;99.90;;;;;;4423676;32;20130;-80
2023/04/02 02:41:59;;;;;;;0.30;0.30;;;4.60;99.90;;;;;;4421224;32;20093;-78
2023/04/02 02:44:28;;;;;;;0.20;0.20;;;4.60;99.90;;;;;;4419401;32;20552;-78
2023/04/02 02:47:00;;;;;;;0.32;0.32;;;4.50;99.90;;;;;;4420358;32;20158;-79
2023/04/02 02:49:31;;;;;;;0.62;0.62;;;4.50;99.90;;;;;;4421791;32;20066;-78
2023/04/02 02:52:10;;;;;;;0.30;0.30;;;4.40;99.90;;;;;;4423341;32;20509;-78
2023/04/02 02:54:39;;;;;;;0.65;0.65;;;4.30;99.90;;;;;;4423369;32;20163;-78
2023/04/02 02:57:09;;;;;;;0.35;0.35;;;4.30;99.90;;;;;;4420507;32;20079;-79
2023/04/02 02:59:36;;;;;;;0.37;0.37;;;4.40;99.90;;;;;;4421968;32;20099;-77
2023/04/02 03:02:02;;;;;;;0.77;0.77;;;4.30;99.90;;;;;;4422453;32;20134;-79
2023/04/02 03:04:34;;;;;;;0.30;0.30;;;4.30;99.90;;;;;;4422300;32;20419;-78
2023/04/02 03:07:00;;;;;;;0.40;0.40;;;4.30;99.90;;;;;;4422446;32;20061;-77
2023/04/02 03:09:50;;;;;;;1.15;0.88;;;4.30;99.90;;;;;;4422246;32;20126;-78
2023/04/02 03:12:35;;;;;;;0.62;0.62;;;4.30;99.90;;;;;;4412404;32;20524;-79
2023/04/02 03:15:18;;;;;;;0.30;0.30;;;4.30;99.90;;;;;;4407707;32;20525;-79
2023/04/02 03:17:52;;;;;;;0.47;0.47;;;4.20;99.90;;;;;;4405878;32;20544;-78
2023/04/02 03:20:43;;;;;;;0.30;0.30;;;4.20;99.90;;;;;;4420552;32;20083;-78
2023/04/02 03:23:18;;;;;;;0.30;0.30;;;4.10;99.90;;;;;;4406182;32;20088;-78
2023/04/02 03:25:52;;;;;;;0.32;0.32;;;4.10;99.90;;;;;;4419888;32;20081;-78
2023/04/02 03:28:24;;;;;;;0.30;0.30;;;4.20;99.90;;;;;;4421449;32;20155;-78
2023/04/02 03:31:26;;;;;;;0.30;0.30;;;4.20;99.90;;;;;;4421089;32;20098;-77
2023/04/02 03:33:57;;;;;;;0.32;0.32;;;4.20;99.90;;;;;;4420784;32;20118;-78
2023/04/02 03:36:49;;;;;;;0.30;0.30;;;4.20;99.90;;;;;;4421542;32;20081;-76
2023/04/02 03:39:22;;;;;;;0.30;0.30;;;4.20;99.90;;;;;;4410944;32;20061;-79
2023/04/02 03:42:13;;;;;;;0.30;0.30;;;4.10;99.90;;;;;;4420002;32;20557;-78
2023/04/02 03:44:48;;;;;;;0.40;0.40;;;4.10;99.90;;;;;;4411581;32;20081;-79
2023/04/02 03:47:18;;;;;;;0.93;0.85;;;4.20;99.90;;;;;;4422899;32;20508;-80
2023/04/02 03:49:51;;;;;;;0.47;0.47;;;4.10;99.90;;;;;;4421705;32;20088;-78
2023/04/02 03:52:24;;;;;;;0.55;0.55;;;4.20;99.90;;;;;;4421133;32;20461;-77
2023/04/02 03:54:50;;;;;;;0.32;0.32;;;4.30;99.90;;;;;;4421382;32;20065;-78
2023/04/02 03:57:39;;;;;;;0.93;0.93;;;4.20;99.90;;;;;;4421950;32;20204;-79
2023/04/02 04:00:15;;;;;;;0.30;0.30;;;4.20;99.90;;;;;;4422699;32;20094;-78
2023/04/02 04:02:48;;;;;;;0.30;0.30;;;4.20;99.90;;;;;;4422030;32;20187;-78
2023/04/02 04:05:35;;;;;;;1.25;0.57;;;4.20;99.90;;;;;;4421079;32;20085;-77
2023/04/02 04:08:05;;;;;;;0.40;0.40;;;4.30;99.90;;;;;;4410651;32;20120;-78
2023/04/02 04:10:31;;;;;;;0.40;0.40;;;4.20;99.90;;;;;;4421064;32;20085;-78
2023/04/02 04:13:16;;;;;;;0.30;0.30;;;4.30;99.90;;;;;;4423354;32;20724;-79
2023/04/02 04:15:50;;;;;;;2.12;1.67;;;4.30;99.90;;;;;;4409021;32;20074;-79
2023/04/02 04:18:33;;;;;;;0.40;0.40;;;4.30;99.90;;;;;;4420664;32;20065;-79
2023/04/02 04:21:02;;;;;;;0.30;0.30;;;4.40;99.90;;;;;;4422501;32;20085;-79
2023/04/02 04:23:34;;;;;;;1.20;0.75;;;4.30;99.90;;;;;;4421655;32;20085;-79
2023/04/02 04:26:23;;;;;;;0.40;0.40;;;4.30;99.90;;;;;;4419760;32;20078;-79
2023/04/02 04:29:14;;;;;;;0.62;0.62;;;4.30;99.90;;;;;;4421534;32;20398;-77
2023/04/02 04:31:49;;;;;;;0.40;0.40;;;4.30;99.90;;;;;;4410325;32;20100;-79
2023/04/02 04:34:22;;;;;;;0.40;0.40;;;4.40;99.90;;;;;;4420979;32;20077;-78
2023/04/02 04:36:53;;;;;;;0.45;0.45;;;4.40;99.90;;;;;;4421041;32;20179;-79
2023/04/02 04:39:28;;;;;;;0.25;0.25;;;4.40;99.90;;;;;;4421985;32;20141;-79
2023/04/02 04:41:58;;;;;;;0.82;0.82;;;4.30;99.90;;;;;;4421465;32;20089;-77
2023/04/02 04:44:45;;;;;;;0.40;0.40;;;4.30;99.90;;;;;;4423729;32;20062;-79
2023/04/02 04:47:19;;;;;;;2.53;1.25;;;4.30;99.90;;;;;;4420849;32;20077;-78
2023/04/02 04:49:51;;;;;;;0.30;0.30;;;4.30;99.90;;;;;;4422636;32;20065;-78
2023/04/02 04:52:22;;;;;;;2.62;1.27;;;4.30;99.90;;;;;;4423267;32;20490;-78
2023/04/02 04:54:48;;;;;;;0.40;0.40;;;4.30;99.90;;;;;;4422321;32;20410;-79
2023/04/02 04:57:28;;;;;;;0.30;0.30;;;4.40;99.90;;;;;;4420408;32;20078;-78
2023/04/02 05:00:05;;;;;;;0.50;0.50;;;4.30;99.90;;;;;;4422105;32;20544;-78
2023/04/02 05:02:46;;;;;;;0.65;0.65;;;4.30;99.90;;;;;;4422044;32;20092;-78
2023/04/02 05:05:25;;;;;;;0.37;0.37;;;4.40;99.90;;;;;;4423868;32;20461;-78
2023/04/02 05:07:58;;;;;;;0.30;0.30;;;4.40;99.90;;;;;;4425081;32;20093;-78
2023/04/02 05:10:32;;;;;;;0.30;0.30;;;4.30;99.90;;;;;;4423458;32;20077;-78
2023/04/02 05:13:05;;;;;;;0.35;0.35;;;4.30;99.90;;;;;;4423641;32;20082;-78
2023/04/02 05:15:40;;;;;;;0.30;0.30;;;4.30;99.90;;;;;;4423853;32;20089;-78
2023/04/02 05:18:31;;;;;;;0.20;0.20;;;4.40;99.90;;;;;;4422079;32;20078;-78
2023/04/02 05:21:05;;;;;;;0.30;0.30;;;4.40;99.90;;;;;;4412920;32;20110;-79
2023/04/02 05:23:49;;;;;;;0.30;0.30;;;4.40;99.90;;;;;;4423378;32;20069;-77
2023/04/02 05:26:20;;;;;;;0.35;0.35;;;4.40;99.90;;;;;;4422076;32;20142;-79
2023/04/02 05:29:00;;;;;;;0.35;0.35;;;4.40;99.90;;;;;;4423864;32;20511;-78
2023/04/02 05:31:31;;;;;;;0.40;0.40;;;4.50;99.90;;;;;;4423544;32;20132;-79
2023/04/02 05:33:57;;;;;;;0.40;0.40;;;4.60;99.90;;;;;;4422511;32;20194;-77
2023/04/02 05:36:26;;;;;;;0.62;0.62;;;4.60;99.90;;;;;;4423977;32;20560;-78
2023/04/02 05:38:53;;;;;;;0.37;0.37;;;4.60;99.90;;;;;;4422151;32;20061;-79
2023/04/02 05:41:26;;;;;;;0.30;0.30;;;4.50;99.90;;;;;;4422963;32;20163;-78
2023/04/02 05:44:07;;;;;;;0.30;0.30;;;4.60;99.90;;;;;;4422077;32;20501;-78
2023/04/02 05:46:36;;;;;;;0.40;0.40;;;4.60;99.90;;;;;;4420515;32;20105;-78
2023/04/02 05:49:09;;;;;;;0.40;0.40;;;4.60;99.90;;;;;;4420921;32;20066;-79
2023/04/02 05:51:42;;;;;;;0.30;0.30;;;4.60;99.90;;;;;;4423588;32;20143;-78
2023/04/02 05:54:22;;;;;;;0.30;0.30;;;4.60;99.90;;;;;;4423535;32;20123;-78
2023/04/02 05:56:53;;;;;;;0.40;0.40;;;4.60;99.90;;;;;;4422242;32;20129;-79
2023/04/02 05:59:42;;;;;;;0.30;0.30;;;4.60;99.90;;;;;;4423773;32;20163;-79
2023/04/02 06:02:20;;;;;;;0.25;0.25;;;4.70;99.90;;;;;;4412621;32;20211;-78
2023/04/02 06:04:58;;;;;;;0.30;0.30;;;4.70;99.90;;;;;;4421718;32;20062;-78
2023/04/02 06:07:35;;;;;;;0.50;0.50;;;4.70;99.90;;;;;;4421084;32;20070;-79
2023/04/02 06:10:22;;;;;;;0.40;0.40;;;4.70;99.90;;;;;;4423030;32;20078;-78
2023/04/02 06:13:02;;;;;;;0.30;0.30;;;4.80;99.90;;;;;;4409748;32;20069;-78
2023/04/02 06:15:28;;;;;;;0.30;0.30;;;4.80;99.90;;;;;;4423454;32;20583;-79
2023/04/02 06:17:59;;;;;;;0.32;0.32;;;4.80;99.90;;;;;;4423079;32;20099;-77
2023/04/02 06:20:26;;;;;;;0.30;0.30;;;4.80;99.90;;;;;;4422260;32;20132;-79
2023/04/02 06:22:58;;;;;;;0.30;0.30;;;4.90;99.90;;;;;;4422596;32;20112;-78
2023/04/02 06:25:29;;;;;;;0.40;0.40;;;4.90;99.90;;;;;;4421151;32;20097;-79
2023/04/02 06:27:59;;;;;;;0.60;0.60;;;4.90;99.90;;;;;;4422349;32;20108;-77
2023/04/02 06:30:30;;;;;;;0.40;0.40;;;4.90;99.90;;;;;;4423487;32;20097;-79
2023/04/02 06:32:56;;;;;;;0.50;0.50;;;4.90;99.90;;;;;;4423081;32;20601;-78
2023/04/02 06:35:22;;;;;;;0.30;0.30;;;4.90;99.90;;;;;;4422900;32;20116;-77
2023/04/02 06:37:51;;;;;;;0.40;0.40;;;4.90;99.90;;;;;;4423056;32;20061;-77
2023/04/02 06:40:40;;;;;;;0.82;0.82;;;4.90;99.90;;;;;;4423026;32;20097;-78
2023/04/02 06:43:16;;;;;;;0.30;0.30;;;5.00;99.90;;;;;;4409707;32;20459;-78
2023/04/02 06:45:44;;;;;;;0.32;0.32;;;5.00;99.90;;;;;;4422649;32;20089;-79
2023/04/02 06:48:19;;;;;;;0.40;0.40;;;5.00;99.90;;;;;;4421896;32;20124;-78
2023/04/02 06:50:53;;;;;;;0.30;0.30;;;5.10;99.90;;;;;;4421233;32;20085;-77
2023/04/02 06:53:25;;;;;;;0.30;0.30;;;5.10;99.90;;;;;;4420776;32;20460;-77
2023/04/02 06:56:04;;;;;;;0.60;0.60;;;5.10;99.90;;;;;;4421515;32;20101;-78
2023/04/02 06:58:30;;;;;;;0.30;0.30;;;5.20;99.90;;;;;;4422452;32;20090;-78
2023/04/02 07:00:56;;;;;;;0.70;0.70;;;5.40;99.90;;;;;;4421875;32;20085;-79
2023/04/02 07:03:25;;;;;;;0.30;0.30;;;5.40;99.90;;;;;;4422833;32;20127;-79
2023/04/02 07:05:50;;;;;;;0.20;0.20;;;5.40;99.90;;;;;;4422618;32;20061;-79
2023/04/02 07:08:16;;;;;;;0.30;0.30;;;5.40;99.90;;;;;;4422459;32;20413;-79
2023/04/02 07:10:41;;;;;;;0.25;0.25;;;5.50;99.90;;;;;;4412319;32;20614;-78
2023/04/02 07:13:13;;;;;;;0.43;0.43;;;5.50;99.90;;;;;;4418982;32;20070;-79
2023/04/02 07:15:39;;;;;;;0.50;0.50;;;5.50;99.90;;;;;;4421661;32;20721;-78
2023/04/02 07:18:05;;;;;;;0.30;0.30;;;5.40;99.90;;;;;;4423733;32;20124;-77
2023/04/02 07:20:33;;;;;;;0.52;0.52;;;5.50;99.90;;;;;;4422660;32;20084;-78
2023/04/02 07:22:58;;;;;;;0.32;0.32;;;5.40;99.90;;;;;;4421296;32;20078;-78
2023/04/02 07:25:25;;;;;;;0.25;0.25;;;5.40;99.90;;;;;;4422580;32;20538;-77
2023/04/02 07:27:51;;;;;;;0.30;0.30;;;5.40;99.90;;;;;;4421000;32;20171;-78
2023/04/02 07:30:17;;;;;;;14.90;0.73;;;5.40;99.90;;;;;;4423812;32;20583;-78
2023/04/02 07:32:43;;;;;;;0.30;0.30;;;5.50;99.90;;;;;;4421939;32;20062;-79
2023/04/02 07:35:10;;;;;;;0.35;0.35;;;5.50;99.90;;;;;;4424203;32;20065;-78
2023/04/02 07:37:37;;;;;;;0.30;0.30;;;5.60;99.90;;;;;;4422544;32;20508;-79
2023/04/02 07:40:05;;;;;;;0.30;0.30;;;5.60;99.90;;;;;;4420777;32;20073;-79
2023/04/02 07:42:30;;;;;;;0.30;0.30;;;5.60;99.90;;;;;;4420722;32;20057;-77
2023/04/02 07:44:56;;;;;;;0.20;0.20;;;5.60;99.90;;;;;;4423914;32;20080;-78
2023/04/02 07:47:21;;;;;;;0.30;0.30;;;5.70;99.90;;;;;;4422688;32;20073;-78
2023/04/02 07:49:47;;;;;;;0.82;0.80;;;5.80;99.90;;;;;;4421537;32;20069;-79
2023/04/02 07:52:12;;;;;;;0.43;0.43;;;5.80;99.90;;;;;;4421045;32;20160;-79
2023/04/02 07:54:38;;;;;;;0.30;0.30;;;6.00;99.90;;;;;;4423340;32;20077;-79
2023/04/02 07:57:04;;;;;;;0.40;0.40;;;6.00;99.90;;;;;;4420974;32;20117;-79
2023/04/02 07:59:30;;;;;;;0.50;0.50;;;6.00;99.90;;;;;;4419600;32;20462;-79
2023/04/02 08:01:56;;;;;;;0.28;0.28;;;5.80;99.90;;;;;;4422608;32;20089;-77
2023/04/02 08:04:22;;;;;;;0.50;0.50;;;5.80;99.90;;;;;;4421180;32;20085;-79
2023/04/02 08:06:48;;;;;;;0.40;0.40;;;6.10;99.90;;;;;;4421870;32;20081;-79
2023/04/02 08:09:15;;;;;;;0.40;0.40;;;6.20;99.90;;;;;;4418134;32;20840;-79
2023/04/02 08:11:41;;;;;;;0.30;0.30;;;6.30;99.90;;;;;;4419831;32;20079;-79
2023/04/02 08:14:07;;;;;;;0.30;0.30;;;6.30;99.90;;;;;;4421168;32;20078;-78
2023/04/02 08:16:51;;;;;;;0.50;0.50;;;6.30;99.90;;;;;;4421654;32;20426;-78
2023/04/02 08:19:18;;;;;;;0.20;0.20;;;6.40;99.90;;;;;;4421601;32;20073;-78
2023/04/02 08:21:44;;;;;;;0.20;0.20;;;6.40;99.90;;;;;;4423138;32;20089;-78
2023/04/02 08:24:10;;;;;;;0.20;0.20;;;6.30;99.90;;;;;;4421696;32;20077;-78
2023/04/02 08:26:36;;;;;;;0.30;0.30;;;6.20;99.90;;;;;;4422607;32;20584;-78
2023/04/02 08:29:01;;;;;;;0.30;0.30;;;6.20;99.90;;;;;;4422525;32;20081;-77
2023/04/02 08:31:27;;;;;;;0.30;0.30;;;6.20;99.90;;;;;;4422449;32;20085;-79
2023/04/02 08:33:55;;;;;;;0.30;0.30;;;6.20;99.90;;;;;;4423872;32;20525;-78
2023/04/02 08:36:27;;;;;;;0.30;0.30;;;6.20;99.90;;;;;;4423288;32;20077;-79
2023/04/02 08:38:53;;;;;;;0.37;0.37;;;6.20;99.90;;;;;;4423702;32;20091;-79
2023/04/02 08:41:26;;;;;;;0.20;0.20;;;6.40;99.90;;;;;;4420414;32;20535;-76
2023/04/02 08:44:02;;;;;;;0.20;0.20;;;6.40;99.90;;;;;;4422227;32;20062;-78
2023/04/02 08:46:57;;;;;;;0.37;0.37;;;6.50;99.90;;;;;;4422479;32;20145;-77
2023/04/02 08:49:34;;;;;;;0.30;0.30;;;6.50;99.90;;;;;;4424524;32;20084;-78
2023/04/02 08:52:00;;;;;;;0.32;0.32;;;6.40;99.90;;;;;;4425430;32;20496;-79
2023/04/02 08:54:29;;;;;;;0.30;0.30;;;6.50;99.90;;;;;;4423915;32;20086;-76
2023/04/02 08:56:59;;;;;;;0.35;0.35;;;6.40;99.90;;;;;;4422268;32;20433;-76
2023/04/02 08:59:33;;;;;;;0.37;0.37;;;6.60;99.90;;;;;;4424814;32;20078;-77
2023/04/02 09:02:21;;;;;;;0.30;0.30;;;6.60;99.90;;;;;;4425351;32;20511;-77
2023/04/02 09:04:47;;;;;;;0.32;0.32;;;6.60;99.90;;;;;;4424912;32;20073;-74
2023/04/02 09:07:15;;;;;;;0.30;0.30;;;6.70;99.90;;;;;;4426776;32;20074;-70
2023/04/02 09:09:42;;;;;;;0.25;0.25;;;6.60;99.90;;;;;;4422272;32;20112;-72
2023/04/02 09:12:18;;;;;;;0.30;0.30;;;6.60;99.90;;;;;;4424562;32;20540;-71
2023/04/02 09:14:58;;;;;;;0.32;0.32;;;6.60;99.90;;;;;;4423315;32;20076;-74
2023/04/02 09:17:25;;;;;;;0.32;0.32;;;6.60;99.90;;;;;;4422454;32;20662;-70
2023/04/02 09:20:07;;;;;;;0.50;0.50;;;6.60;99.90;;;;;;4423537;32;20154;-73
2023/04/02 09:22:33;;;;;;;0.30;0.30;;;6.60;99.90;;;;;;4425185;32;20065;-70
2023/04/02 09:25:03;;;;;;;0.77;0.77;;;6.50;99.90;;;;;;4423878;32;20074;-73
2023/04/02 09:27:31;;;;;;;0.32;0.32;;;6.50;99.90;;;;;;4421260;32;20418;-71
2023/04/02 09:30:12;;;;;;;0.40;0.40;;;6.70;99.90;;;;;;4423139;32;20140;-71
2023/04/02 09:32:54;;;;;;;;;;;6.90;99.90;;;;;;4422801;32;20135;-71
2023/04/02 09:35:24;;;;;;;30.80;0.73;;;7.10;99.90;;;;;;4424100;32;20012;-71
2023/04/02 09:38:11;;;;;;;1.07;0.67;;;7.10;99.90;;;;;;4420385;32;20086;-72
2023/04/02 09:41:01;;;;;;;2.90;0.50;;;7.20;99.90;;;;;;4412144;32;20077;-71
2023/04/02 09:43:34;;;;;;;3.33;1.40;;;7.30;99.90;;;;;;4410929;32;20125;-71
2023/04/02 09:46:05;;;;;;;0.30;0.30;;;7.20;99.90;;;;;;4419649;32;20082;-72
2023/04/02 09:48:34;;;;;;;0.30;0.30;;;7.10;99.90;;;;;;4422566;32;20508;-71
2023/04/02 09:51:20;;;;;;;0.30;0.30;;;7.10;99.90;;;;;;4422391;32;20235;-74
2023/04/02 09:53:49;;;;;;;0.37;0.37;;;7.20;99.90;;;;;;4421245;32;20556;-71
2023/04/02 09:56:18;;;;;;;0.80;0.80;;;7.70;99.90;;;;;;4423896;32;20093;-71
2023/04/02 09:59:00;;;;;;;0.30;0.30;;;8.10;99.90;;;;;;4423096;32;20077;-73
2023/04/02 10:01:29;;;;;;;0.55;0.55;;;8.40;99.90;;;;;;4409116;32;20090;-71
2023/04/02 10:03:55;;;;;;;0.30;0.30;;;8.70;99.90;;;;;;4421597;32;20089;-71
2023/04/02 10:06:21;;;;;;;0.20;0.20;;;8.80;99.90;;;;;;4422745;32;20729;-74
2023/04/02 10:08:46;;;;;;;0.20;0.20;;;8.70;99.90;;;;;;4422430;32;20138;-72
2023/04/02 10:11:16;;;;;;;0.30;0.30;;;9.00;99.90;;;;;;4421860;32;20109;-72
2023/04/02 10:14:00;;;;;;;0.73;0.73;;;9.20;99.90;;;;;;4408525;32;20592;-70
2023/04/02 10:16:32;;;;;;;0.20;0.20;;;9.20;99.90;;;;;;4421032;32;20085;-72
2023/04/02 10:19:01;;;;;;;0.20;0.20;;;9.60;99.90;;;;;;4422906;32;20088;-71
2023/04/02 10:21:32;;;;;;;0.40;0.40;;;10.00;99.90;;;;;;4423218;32;20122;-71
2023/04/02 10:23:58;;;;;;;0.30;0.30;;;10.20;99.90;;;;;;4421757;32;20527;-71
2023/04/02 10:26:40;;;;;;;0.30;0.30;;;10.20;99.90;;;;;;4421512;32;20062;-72
2023/04/02 10:29:16;;;;;;;0.30;0.30;;;10.70;99.90;;;;;;4422373;32;20081;-70
2023/04/02 10:31:58;;;;;;;1.85;0.62;;;10.60;99.90;;;;;;4422113;32;20077;-71
2023/04/02 10:34:33;;;;;;;0.30;0.30;;;10.80;99.90;;;;;;4421472;32;20090;-73
2023/04/02 10:37:10;;;;;;;0.30;0.30;;;10.80;99.90;;;;;;4423327;32;20105;-71
2023/04/02 10:39:44;;;;;;;1.87;1.35;;;10.60;99.90;;;;;;4420380;32;20081;-72
2023/04/02 10:42:22;;;;;;;0.30;0.30;;;10.80;99.90;;;;;;4421372;32;20080;-70
2023/04/02 10:44:57;;;;;;;0.22;0.22;;;11.30;99.90;;;;;;4407798;32;20085;-71
2023/04/02 10:47:36;;;;;;;0.43;0.43;;;11.40;99.90;;;;;;4422510;32;20081;-70
2023/04/02 10:50:23;;;;;;;0.30;0.30;;;11.50;99.90;;;;;;4421982;32;20140;-72
2023/04/02 10:53:01;;;;;;;0.50;0.50;;;11.60;99.90;;;;;;4421381;32;20077;-71
2023/04/02 10:55:32;;;;;;;0.30;0.30;;;11.80;99.80;;;;;;4422082;32;20078;-71
2023/04/02 10:58:04;;;;;;;2.37;0.62;;;11.70;99.90;;;;;;4421905;32;20542;-72
2023/04/02 11:00:36;;;;;;;0.57;0.57;;;11.80;99.90;;;;;;4420847;32;20473;-70
2023/04/02 11:03:06;;;;;;;0.25;0.25;;;11.80;99.50;;;;;;4419926;32;20160;-71
2023/04/02 11:05:51;;;;;;;0.40;0.40;;;11.30;99.70;;;;;;4423022;32;20088;-70
2023/04/02 11:08:24;;;;;;;0.40;0.40;;;10.70;99.90;;;;;;4420618;32;20496;-71
2023/04/02 11:10:57;;;;;;;8.98;0.93;;;10.20;99.90;;;;;;4420842;32;20081;-72
2023/04/02 11:13:31;;;;;;;1.02;0.70;;;9.80;99.90;;;;;;4422246;32;20482;-70
2023/04/02 11:15:57;;;;;;;0.50;0.50;;;9.90;99.90;;;;;;4420433;32;20081;-71
2023/04/02 11:18:34;;;;;;;4.68;0.70;;;10.30;99.90;;;;;;4422653;32;20077;-71
2023/04/02 11:21:37;;;;;;;1.52;0.40;;;10.10;99.90;;;;;;4421367;32;20576;-73
2023/04/02 11:24:02;;;;;;;0.30;0.30;;;10.10;99.90;;;;;;4399498;32;20093;-70
2023/04/02 11:26:41;;;;;;;0.30;0.30;;;10.10;99.90;;;;;;4421776;32;20484;-70
2023/04/02 11:29:27;;;;;;;0.30;0.30;;;9.80;99.90;;;;;;4421233;32;20080;-72
2023/04/02 11:32:25;;;;;;;0.30;0.30;;;9.60;99.90;;;;;;4409616;32;20406;-74
2023/04/02 11:34:53;;;;;;;0.40;0.40;;;9.40;99.90;;;;;;4410529;32;20144;-72
2023/04/02 11:37:38;;;;;;;1.52;1.08;;;9.30;99.90;;;;;;4407419;32;20092;-69
2023/04/02 11:40:13;;;;;;;0.30;0.30;;;9.30;99.90;;;;;;4419508;32;20069;-70
2023/04/02 11:42:43;;;;;;;0.40;0.40;;;9.30;99.90;;;;;;4408089;32;20089;-70
2023/04/02 11:45:27;;;;;;;0.70;0.70;;;9.10;99.90;;;;;;4420235;32;86420;-71
2023/04/02 11:48:04;;;;;;;0.30;0.30;;;9.10;99.90;;;;;;4422979;32;20090;-73
2023/04/02 11:50:39;;;;;;;0.70;0.70;;;9.10;99.90;;;;;;4408129;32;20539;-72
2023/04/02 11:53:20;;;;;;;0.30;0.30;;;9.10;99.90;;;;;;4422107;32;20512;-71
2023/04/02 11:56:06;;;;;;;2.80;0.62;;;9.10;99.90;;;;;;4406043;32;20163;-70
2023/04/02 11:58:57;;;;;;;0.30;0.30;;;9.10;99.90;;;;;;4408792;32;20185;-73
2023/04/02 12:01:29;;;;;;;2.62;1.12;;;9.40;99.90;;;;;;4411083;32;20406;-74
2023/04/02 12:04:35;;;;;;;0.40;0.40;;;10.30;99.90;;;;;;4418788;32;20129;-71
2023/04/02 12:07:16;;;;;;;0.40;0.40;;;10.30;99.90;;;;;;4407421;32;20109;-75
2023/04/02 12:09:48;;;;;;;5.47;0.70;;;10.20;99.90;;;;;;4422253;32;20069;-73
2023/04/02 12:12:25;;;;;;;0.57;0.57;;;10.10;99.90;;;;;;4422915;32;20607;-71
2023/04/02 12:14:53;;;;;;;0.32;0.32;;;10.20;99.90;;;;;;4422903;32;20065;-71
2023/04/02 12:17:28;;;;;;;0.40;0.40;;;10.40;99.90;;;;;;4424064;32;20803;-72
2023/04/02 12:19:58;;;;;;;0.40;0.40;;;10.80;99.90;;;;;;4423716;32;20491;-71
2023/04/02 12:22:27;;;;;;;0.52;0.52;;;10.90;99.90;;;;;;4423625;32;20143;-73
2023/04/02 12:24:57;;;;;;;0.47;0.47;;;10.80;99.90;;;;;;4422077;32;20082;-71
2023/04/02 12:27:26;;;;;;;0.73;0.55;;;10.80;99.90;;;;;;4424544;32;20056;-71
2023/04/02 12:29:53;;;;;;;0.40;0.40;;;10.80;99.90;;;;;;4422668;32;20061;-71
2023/04/02 12:32:28;;;;;;;2.65;1.27;;;10.90;99.90;;;;;;4424487;32;20153;-71
2023/04/02 12:34:56;;;;;;;3.17;0.90;;;10.80;99.90;;;;;;4421773;32;20062;-71
2023/04/02 12:37:25;;;;;;;0.37;0.37;;;10.40;99.90;;;;;;4424372;32;20136;-71
2023/04/02 12:39:54;;;;;;;0.40;0.40;;;10.20;99.90;;;;;;4422689;32;20077;-71
2023/04/02 12:42:36;;;;;;;0.30;0.30;;;10.00;99.90;;;;;;4423634;32;20088;-72
2023/04/02 12:45:05;;;;;;;0.40;0.40;;;9.90;99.90;;;;;;4407222;32;20144;-71
2023/04/02 12:47:31;;;;;;;0.70;0.70;;;9.90;99.90;;;;;;4422782;32;20093;-72
2023/04/02 12:49:59;;;;;;;8.93;0.60;;;9.90;99.90;;;;;;4424533;32;20125;-71
2023/04/02 12:52:27;;;;;;;0.73;0.73;;;9.80;99.90;;;;;;4425122;32;20065;-73
2023/04/02 12:54:58;;;;;;;0.40;0.40;;;9.80;99.90;;;;;;4423627;32;20061;-73
2023/04/02 12:57:28;;;;;;;0.40;0.40;;;9.70;99.90;;;;;;4421328;32;20097;-72
2023/04/02 12:59:55;;;;;;;0.75;0.75;;;9.80;99.90;;;;;;4422468;32;20093;-74
2023/04/02 13:02:24;;;;;;;0.82;0.62;;;9.90;99.90;;;;;;4422965;32;20077;-73
2023/04/02 13:04:52;;;;;;;0.65;0.52;;;9.90;99.90;;;;;;4422513;32;20519;-73
2023/04/02 13:07:21;;;;;;;0.60;0.60;;;10.30;99.90;;;;;;4423152;32;20078;-72
2023/04/02 13:09:49;;;;;;;0.85;0.85;;;10.30;99.90;;;;;;4418095;32;20065;-72
2023/04/02 13:12:36;;;;;;;0.20;0.20;;;10.20;99.90;;;;;;4423102;32;20677;-74
2023/04/02 13:15:06;;;;;;;0.30;0.30;;;10.30;99.90;;;;;;4411493;32;20469;-71
2023/04/02 13:18:12;;;;;;;0.97;0.63;;;10.20;99.90;;;;;;4423114;32;20086;-72
2023/04/02 13:20:39;;;;;;;0.30;0.30;;;10.40;99.40;;;;;;4409298;32;20084;-71
2023/04/02 13:23:27;;;;;;;1.52;0.60;;;10.20;98.70;;;;;;4422704;32;20093;-73
2023/04/02 13:25:52;;;;;;;1.85;0.40;;;10.60;99.50;;;;;;4410168;32;20089;-71
2023/04/02 13:28:19;;;;;;;1.95;0.37;;;11.70;96.80;;;;;;4419149;32;20434;-70
2023/04/02 13:30:45;;;;;;;0.30;0.30;;;11.70;97.20;;;;;;4423046;32;20069;-70